sensor_id;sensor_type;location;lat;lon;timestamp;pressure;altitude;pressure_sealevel;temperature;humidity
5609;BME280;2826;51.354;9.588;2023-05-21T00:02:11;98268.78;;;15.14;81.22
5609;BME280;2826;51.354;9.588;2023-05-21T00:04:39;98268.16;;;15.09;81.35
5609;BME280;2826;51.354;9.588;2023-05-21T00:07:06;98266.41;;;15.10;81.23
5609;BME280;2826;51.354;9.588;2023-05-21T00:09:33;98245.53;;;14.94;81.94
5609;BME280;2826;51.354;9.588;2023-05-21T00:12:03;98257.22;;;15.02;81.53
5609;BME280;2826;51.354;9.588;2023-05-21T00:14:30;98263.97;;;15.07;82.00
5609;BME280;2826;51.354;9.588;2023-05-21T00:16:56;98258.75;;;15.07;82.16
5609;BME280;2826;51.354;9.588;2023-05-21T00:19:24;98254.19;;;15.10;81.99
5609;BME280;2826;51.354;9.588;2023-05-21T00:21:51;98258.31;;;15.14;82.09
5609;BME280;2826;51.354;9.588;2023-05-21T00:24:18;98252.56;;;15.24;81.48
5609;BME280;2826;51.354;9.588;2023-05-21T00:26:45;98246.31;;;15.26;81.28
5609;BME280;2826;51.354;9.588;2023-05-21T00:29:12;98244.94;;;15.35;81.14
5609;BME280;2826;51.354;9.588;2023-05-21T00:31:39;98238.97;;;15.33;81.11
5609;BME280;2826;51.354;9.588;2023-05-21T00:34:05;98230.09;;;15.36;80.98
5609;BME280;2826;51.354;9.588;2023-05-21T00:36:33;98216.75;;;15.40;80.81
5609;BME280;2826;51.354;9.588;2023-05-21T00:39:00;98219.66;;;15.36;81.16
5609;BME280;2826;51.354;9.588;2023-05-21T00:41:29;98223.69;;;15.41;80.58
5609;BME280;2826;51.354;9.588;2023-05-21T00:43:56;98209.31;;;15.49;80.89
5609;BME280;2826;51.354;9.588;2023-05-21T00:46:25;98219.41;;;15.55;80.68
5609;BME280;2826;51.354;9.588;2023-05-21T00:48:53;98214.94;;;15.57;80.79
5609;BME280;2826;51.354;9.588;2023-05-21T00:51:22;98216.16;;;15.66;80.89
5609;BME280;2826;51.354;9.588;2023-05-21T00:53:51;98216.16;;;15.66;80.61
5609;BME280;2826;51.354;9.588;2023-05-21T00:56:18;98214.19;;;15.70;80.29
5609;BME280;2826;51.354;9.588;2023-05-21T00:58:46;98212.53;;;15.68;80.69
5609;BME280;2826;51.354;9.588;2023-05-21T01:01:13;98190.84;;;15.52;80.38
5609;BME280;2826;51.354;9.588;2023-05-21T01:03:40;98209.72;;;15.72;80.26
5609;BME280;2826;51.354;9.588;2023-05-21T01:06:08;98212.22;;;15.73;79.87
5609;BME280;2826;51.354;9.588;2023-05-21T01:08:35;98205.59;;;15.67;80.03
5609;BME280;2826;51.354;9.588;2023-05-21T01:11:05;98203.91;;;15.66;80.21
5609;BME280;2826;51.354;9.588;2023-05-21T01:13:34;98205.41;;;15.71;79.93
5609;BME280;2826;51.354;9.588;2023-05-21T01:16:01;98196.09;;;15.66;79.91
5609;BME280;2826;51.354;9.588;2023-05-21T01:18:31;98193.94;;;15.59;80.27
5609;BME280;2826;51.354;9.588;2023-05-21T01:20:59;98202.41;;;15.48;80.98
5609;BME280;2826;51.354;9.588;2023-05-21T01:23:27;98198.78;;;15.50;80.78
5609;BME280;2826;51.354;9.588;2023-05-21T01:25:54;98200.75;;;15.47;80.71
5609;BME280;2826;51.354;9.588;2023-05-21T01:28:21;98193.25;;;15.40;81.28
5609;BME280;2826;51.354;9.588;2023-05-21T01:30:47;98193.72;;;15.33;81.66
5609;BME280;2826;51.354;9.588;2023-05-21T01:33:17;98191.38;;;15.28;81.82
5609;BME280;2826;51.354;9.588;2023-05-21T01:35:49;98186.31;;;15.25;81.58
5609;BME280;2826;51.354;9.588;2023-05-21T01:38:23;98151.19;;;15.00;81.65
5609;BME280;2826;51.354;9.588;2023-05-21T01:40:55;98188.78;;;15.28;81.33
5609;BME280;2826;51.354;9.588;2023-05-21T01:43:24;98185.38;;;15.26;81.77
5609;BME280;2826;51.354;9.588;2023-05-21T01:45:54;98186.25;;;15.26;81.47
5609;BME280;2826;51.354;9.588;2023-05-21T01:48:23;98185.69;;;15.21;81.71
5609;BME280;2826;51.354;9.588;2023-05-21T01:50:51;98182.22;;;15.21;81.83
5609;BME280;2826;51.354;9.588;2023-05-21T01:53:19;98181.97;;;15.09;82.17
5609;BME280;2826;51.354;9.588;2023-05-21T01:55:46;98194.84;;;14.98;82.75
5609;BME280;2826;51.354;9.588;2023-05-21T01:58:14;98189.69;;;14.96;83.35
5609;BME280;2826;51.354;9.588;2023-05-21T02:00:41;98190.72;;;14.94;83.55
5609;BME280;2826;51.354;9.588;2023-05-21T02:03:10;98185.75;;;14.89;83.74
5609;BME280;2826;51.354;9.588;2023-05-21T02:05:36;98185.66;;;14.91;83.40
5609;BME280;2826;51.354;9.588;2023-05-21T02:08:03;98184.56;;;14.95;83.57
5609;BME280;2826;51.354;9.588;2023-05-21T02:10:33;98187.25;;;14.93;83.20
5609;BME280;2826;51.354;9.588;2023-05-21T02:12:59;98182.72;;;14.97;82.94
5609;BME280;2826;51.354;9.588;2023-05-21T02:15:27;98191.47;;;14.96;82.98
5609;BME280;2826;51.354;9.588;2023-05-21T02:17:55;98157.75;;;14.76;83.11
5609;BME280;2826;51.354;9.588;2023-05-21T02:20:22;98180.28;;;14.94;82.93
5609;BME280;2826;51.354;9.588;2023-05-21T02:22:49;98173.25;;;14.94;82.98
5609;BME280;2826;51.354;9.588;2023-05-21T02:25:17;98174.19;;;14.93;82.66
5609;BME280;2826;51.354;9.588;2023-05-21T02:27:44;98177.19;;;14.87;83.19
5609;BME280;2826;51.354;9.588;2023-05-21T02:30:13;98181.13;;;14.78;82.75
5609;BME280;2826;51.354;9.588;2023-05-21T02:32:42;98174.06;;;14.64;83.64
5609;BME280;2826;51.354;9.588;2023-05-21T02:35:10;98174.09;;;14.48;84.51
5609;BME280;2826;51.354;9.588;2023-05-21T02:37:38;98175.34;;;14.41;85.25
5609;BME280;2826;51.354;9.588;2023-05-21T02:40:07;98178.31;;;14.34;85.54
5609;BME280;2826;51.354;9.588;2023-05-21T02:42:34;98175.38;;;14.24;86.04
5609;BME280;2826;51.354;9.588;2023-05-21T02:45:04;98180.72;;;14.21;86.32
5609;BME280;2826;51.354;9.588;2023-05-21T02:47:31;98180.22;;;14.15;86.46
5609;BME280;2826;51.354;9.588;2023-05-21T02:49:59;98183.09;;;14.10;86.67
5609;BME280;2826;51.354;9.588;2023-05-21T02:52:27;98178.91;;;14.07;87.08
5609;BME280;2826;51.354;9.588;2023-05-21T02:54:54;98180.41;;;14.11;87.36
5609;BME280;2826;51.354;9.588;2023-05-21T02:57:21;98182.09;;;14.13;87.66
5609;BME280;2826;51.354;9.588;2023-05-21T02:59:49;98178.41;;;14.17;88.01
5609;BME280;2826;51.354;9.588;2023-05-21T03:02:16;98174.19;;;14.30;87.13
5609;BME280;2826;51.354;9.588;2023-05-21T03:04:43;98166.94;;;14.35;86.86
5609;BME280;2826;51.354;9.588;2023-05-21T03:07:13;98176.22;;;14.41;87.24
5609;BME280;2826;51.354;9.588;2023-05-21T03:09:40;98168.19;;;14.44;86.62
5609;BME280;2826;51.354;9.588;2023-05-21T03:12:08;98178.38;;;14.49;86.61
5609;BME280;2826;51.354;9.588;2023-05-21T03:14:34;98168.69;;;14.51;86.57
5609;BME280;2826;51.354;9.588;2023-05-21T03:17:01;98174.63;;;14.39;87.44
5609;BME280;2826;51.354;9.588;2023-05-21T03:19:30;98173.59;;;14.41;87.73
5609;BME280;2826;51.354;9.588;2023-05-21T03:22:00;98171.91;;;14.40;87.36
5609;BME280;2826;51.354;9.588;2023-05-21T03:24:28;98169.28;;;14.40;87.73
5609;BME280;2826;51.354;9.588;2023-05-21T03:26:57;98176.59;;;14.49;87.46
5609;BME280;2826;51.354;9.588;2023-05-21T03:29:25;98170.56;;;14.49;86.94
5609;BME280;2826;51.354;9.588;2023-05-21T03:31:53;98170.97;;;14.57;86.71
5609;BME280;2826;51.354;9.588;2023-05-21T03:34:20;98164.91;;;14.57;86.58
5609;BME280;2826;51.354;9.588;2023-05-21T03:36:49;98175.00;;;14.63;86.28
5609;BME280;2826;51.354;9.588;2023-05-21T03:39:17;98174.16;;;14.62;85.91
5609;BME280;2826;51.354;9.588;2023-05-21T03:41:45;98171.66;;;14.45;87.39
5609;BME280;2826;51.354;9.588;2023-05-21T03:44:20;98174.63;;;14.39;87.83
5609;BME280;2826;51.354;9.588;2023-05-21T03:47:04;98181.59;;;14.38;87.96
5609;BME280;2826;51.354;9.588;2023-05-21T03:49:33;98179.63;;;14.42;87.87
5609;BME280;2826;51.354;9.588;2023-05-21T03:51:59;98177.81;;;14.44;87.72
5609;BME280;2826;51.354;9.588;2023-05-21T03:54:26;98177.28;;;14.53;87.64
5609;BME280;2826;51.354;9.588;2023-05-21T03:56:59;98172.88;;;14.54;87.98
5609;BME280;2826;51.354;9.588;2023-05-21T03:59:26;98165.06;;;14.54;87.62
5609;BME280;2826;51.354;9.588;2023-05-21T04:01:54;98154.81;;;14.50;87.68
5609;BME280;2826;51.354;9.588;2023-05-21T04:04:20;98173.50;;;14.59;87.63
5609;BME280;2826;51.354;9.588;2023-05-21T04:06:47;98171.91;;;14.56;87.90
5609;BME280;2826;51.354;9.588;2023-05-21T04:09:13;98176.00;;;14.60;87.78
5609;BME280;2826;51.354;9.588;2023-05-21T04:11:41;98177.78;;;14.60;88.61
5609;BME280;2826;51.354;9.588;2023-05-21T04:14:10;98172.28;;;14.64;88.44
5609;BME280;2826;51.354;9.588;2023-05-21T04:16:43;98176.09;;;14.75;88.34
5609;BME280;2826;51.354;9.588;2023-05-21T04:19:10;98174.91;;;14.81;88.18
5609;BME280;2826;51.354;9.588;2023-05-21T04:21:36;98178.00;;;14.87;87.71
5609;BME280;2826;51.354;9.588;2023-05-21T04:24:04;98170.41;;;14.99;87.71
5609;BME280;2826;51.354;9.588;2023-05-21T04:26:53;98168.56;;;15.01;87.04
5609;BME280;2826;51.354;9.588;2023-05-21T04:29:22;98180.59;;;15.04;87.32
5609;BME280;2826;51.354;9.588;2023-05-21T04:31:50;98177.63;;;15.10;87.41
5609;BME280;2826;51.354;9.588;2023-05-21T04:34:16;98178.28;;;15.13;87.26
5609;BME280;2826;51.354;9.588;2023-05-21T04:36:43;98180.72;;;15.17;86.86
5609;BME280;2826;51.354;9.588;2023-05-21T04:39:11;98177.56;;;15.26;87.30
5609;BME280;2826;51.354;9.588;2023-05-21T04:41:39;98174.78;;;15.29;86.33
5609;BME280;2826;51.354;9.588;2023-05-21T04:44:06;98172.25;;;15.27;86.29
5609;BME280;2826;51.354;9.588;2023-05-21T04:46:34;98169.47;;;15.31;86.07
5609;BME280;2826;51.354;9.588;2023-05-21T04:49:02;98155.78;;;15.11;85.98
5609;BME280;2826;51.354;9.588;2023-05-21T04:51:29;98175.88;;;15.25;86.36
5609;BME280;2826;51.354;9.588;2023-05-21T04:53:55;98176.69;;;15.25;86.13
5609;BME280;2826;51.354;9.588;2023-05-21T04:56:22;98180.16;;;15.26;86.29
5609;BME280;2826;51.354;9.588;2023-05-21T04:58:51;98177.38;;;15.29;85.85
5609;BME280;2826;51.354;9.588;2023-05-21T05:01:19;98170.97;;;15.35;86.03
5609;BME280;2826;51.354;9.588;2023-05-21T05:03:49;98174.22;;;15.38;85.44
5609;BME280;2826;51.354;9.588;2023-05-21T05:06:17;98170.50;;;15.43;85.35
5609;BME280;2826;51.354;9.588;2023-05-21T05:08:44;98172.16;;;15.44;85.76
5609;BME280;2826;51.354;9.588;2023-05-21T05:11:13;98174.69;;;15.45;85.38
5609;BME280;2826;51.354;9.588;2023-05-21T05:13:39;98175.44;;;15.47;85.55
5609;BME280;2826;51.354;9.588;2023-05-21T05:16:07;98171.78;;;15.50;85.38
5609;BME280;2826;51.354;9.588;2023-05-21T05:18:35;98176.84;;;15.53;85.17
5609;BME280;2826;51.354;9.588;2023-05-21T05:21:03;98165.09;;;15.60;84.86
5609;BME280;2826;51.354;9.588;2023-05-21T05:23:30;98172.00;;;15.61;85.14
5609;BME280;2826;51.354;9.588;2023-05-21T05:25:57;98167.06;;;15.71;84.98
5609;BME280;2826;51.354;9.588;2023-05-21T05:28:24;98169.19;;;15.79;84.58
5609;BME280;2826;51.354;9.588;2023-05-21T05:30:50;98171.44;;;15.85;84.21
5609;BME280;2826;51.354;9.588;2023-05-21T05:33:23;98171.88;;;15.92;84.12
5609;BME280;2826;51.354;9.588;2023-05-21T05:35:49;98175.19;;;15.96;84.10
5609;BME280;2826;51.354;9.588;2023-05-21T05:38:17;98164.53;;;15.99;84.27
5609;BME280;2826;51.354;9.588;2023-05-21T05:40:44;98170.69;;;16.12;84.05
5609;BME280;2826;51.354;9.588;2023-05-21T05:43:10;98169.19;;;16.23;83.58
5609;BME280;2826;51.354;9.588;2023-05-21T05:45:37;98165.31;;;16.28;83.63
5609;BME280;2826;51.354;9.588;2023-05-21T05:48:09;98162.59;;;16.44;82.76
5609;BME280;2826;51.354;9.588;2023-05-21T05:50:36;98168.03;;;16.54;82.20
5609;BME280;2826;51.354;9.588;2023-05-21T05:53:03;98165.69;;;16.64;81.65
5609;BME280;2826;51.354;9.588;2023-05-21T05:55:30;98163.75;;;16.81;82.11
5609;BME280;2826;51.354;9.588;2023-05-21T05:57:57;98164.81;;;16.91;81.88
5609;BME280;2826;51.354;9.588;2023-05-21T06:00:25;98166.63;;;17.04;81.42
5609;BME280;2826;51.354;9.588;2023-05-21T06:02:52;98164.81;;;17.19;80.48
5609;BME280;2826;51.354;9.588;2023-05-21T06:05:19;98169.09;;;17.20;79.96
5609;BME280;2826;51.354;9.588;2023-05-21T06:07:46;98165.00;;;17.29;79.16
5609;BME280;2826;51.354;9.588;2023-05-21T06:10:13;98167.41;;;17.32;79.06
5609;BME280;2826;51.354;9.588;2023-05-21T06:12:41;98163.66;;;17.36;79.33
5609;BME280;2826;51.354;9.588;2023-05-21T06:15:08;98168.03;;;17.35;78.86
5609;BME280;2826;51.354;9.588;2023-05-21T06:17:35;98171.75;;;17.46;78.69
5609;BME280;2826;51.354;9.588;2023-05-21T06:20:03;98168.88;;;17.49;77.90
5609;BME280;2826;51.354;9.588;2023-05-21T06:22:30;98170.50;;;17.52;77.91
5609;BME280;2826;51.354;9.588;2023-05-21T06:24:56;98174.13;;;17.49;78.83
5609;BME280;2826;51.354;9.588;2023-05-21T06:27:24;98178.56;;;17.48;78.35
5609;BME280;2826;51.354;9.588;2023-05-21T06:29:52;98174.88;;;17.51;78.42
5609;BME280;2826;51.354;9.588;2023-05-21T06:32:19;98176.00;;;17.60;79.16
5609;BME280;2826;51.354;9.588;2023-05-21T06:34:47;98173.19;;;17.63;78.33
5609;BME280;2826;51.354;9.588;2023-05-21T06:37:18;98170.88;;;17.71;77.83
5609;BME280;2826;51.354;9.588;2023-05-21T06:39:45;98157.56;;;17.61;78.21
5609;BME280;2826;51.354;9.588;2023-05-21T06:42:12;98167.63;;;17.81;77.32
5609;BME280;2826;51.354;9.588;2023-05-21T06:45:00;98176.75;;;17.88;77.00
5609;BME280;2826;51.354;9.588;2023-05-21T06:47:29;98173.16;;;17.89;76.31
5609;BME280;2826;51.354;9.588;2023-05-21T06:49:57;98174.00;;;18.02;76.06
5609;BME280;2826;51.354;9.588;2023-05-21T06:52:24;98179.03;;;18.06;76.38
5609;BME280;2826;51.354;9.588;2023-05-21T06:54:52;98173.25;;;18.13;76.04
5609;BME280;2826;51.354;9.588;2023-05-21T06:57:19;98171.03;;;18.20;75.49
5609;BME280;2826;51.354;9.588;2023-05-21T06:59:46;98167.66;;;18.31;75.81
5609;BME280;2826;51.354;9.588;2023-05-21T07:02:14;98175.16;;;18.36;75.39
5609;BME280;2826;51.354;9.588;2023-05-21T07:04:41;98171.38;;;18.40;75.58
5609;BME280;2826;51.354;9.588;2023-05-21T07:07:07;98175.53;;;18.56;75.53
5609;BME280;2826;51.354;9.588;2023-05-21T07:09:34;98177.78;;;18.73;74.42
5609;BME280;2826;51.354;9.588;2023-05-21T07:12:01;98175.41;;;18.82;73.97
5609;BME280;2826;51.354;9.588;2023-05-21T07:14:28;98173.38;;;19.10;73.78
5609;BME280;2826;51.354;9.588;2023-05-21T07:16:54;98167.91;;;19.24;72.40
5609;BME280;2826;51.354;9.588;2023-05-21T07:19:22;98172.22;;;19.25;73.19
5609;BME280;2826;51.354;9.588;2023-05-21T07:21:49;98174.41;;;19.43;73.42
5609;BME280;2826;51.354;9.588;2023-05-21T07:24:16;98172.75;;;19.65;72.24
5609;BME280;2826;51.354;9.588;2023-05-21T07:26:42;98172.16;;;19.95;70.37
5609;BME280;2826;51.354;9.588;2023-05-21T07:29:10;98171.34;;;20.06;69.17
5609;BME280;2826;51.354;9.588;2023-05-21T07:31:37;98168.19;;;20.24;69.29
5609;BME280;2826;51.354;9.588;2023-05-21T07:34:04;98169.94;;;20.46;67.72
5609;BME280;2826;51.354;9.588;2023-05-21T07:36:32;98167.47;;;20.66;66.83
5609;BME280;2826;51.354;9.588;2023-05-21T07:38:59;98161.84;;;20.71;66.42
5609;BME280;2826;51.354;9.588;2023-05-21T07:41:27;98160.84;;;20.83;65.02
5609;BME280;2826;51.354;9.588;2023-05-21T07:43:54;98160.69;;;20.96;64.54
5609;BME280;2826;51.354;9.588;2023-05-21T07:46:21;98156.19;;;21.08;64.47
5609;BME280;2826;51.354;9.588;2023-05-21T07:48:51;98154.91;;;21.24;64.58
5609;BME280;2826;51.354;9.588;2023-05-21T07:51:18;98153.28;;;21.33;65.04
5609;BME280;2826;51.354;9.588;2023-05-21T07:53:46;98159.16;;;21.36;64.39
5609;BME280;2826;51.354;9.588;2023-05-21T07:56:15;98160.22;;;21.55;64.74
5609;BME280;2826;51.354;9.588;2023-05-21T07:58:42;98155.44;;;21.70;63.56
5609;BME280;2826;51.354;9.588;2023-05-21T08:01:12;98153.81;;;21.79;63.42
5609;BME280;2826;51.354;9.588;2023-05-21T08:03:38;98161.78;;;21.89;62.91
5609;BME280;2826;51.354;9.588;2023-05-21T08:06:06;98157.91;;;22.03;62.78
5609;BME280;2826;51.354;9.588;2023-05-21T08:08:32;98166.03;;;22.21;62.70
5609;BME280;2826;51.354;9.588;2023-05-21T08:11:00;98161.44;;;22.23;60.58
5609;BME280;2826;51.354;9.588;2023-05-21T08:13:27;98153.97;;;22.28;59.82
5609;BME280;2826;51.354;9.588;2023-05-21T08:15:54;98160.47;;;22.34;59.36
5609;BME280;2826;51.354;9.588;2023-05-21T08:18:21;98158.81;;;22.33;58.10
5609;BME280;2826;51.354;9.588;2023-05-21T08:20:52;98155.38;;;22.32;58.60
5609;BME280;2826;51.354;9.588;2023-05-21T08:23:22;98156.91;;;22.35;58.68
5609;BME280;2826;51.354;9.588;2023-05-21T08:25:52;98157.03;;;22.43;58.58
5609;BME280;2826;51.354;9.588;2023-05-21T08:28:21;98155.50;;;22.31;58.37
5609;BME280;2826;51.354;9.588;2023-05-21T08:30:49;98154.53;;;22.42;58.13
5609;BME280;2826;51.354;9.588;2023-05-21T08:33:16;98152.72;;;22.52;58.86
5609;BME280;2826;51.354;9.588;2023-05-21T08:35:43;98153.56;;;22.53;58.01
5609;BME280;2826;51.354;9.588;2023-05-21T08:38:30;98156.47;;;22.50;57.71
5609;BME280;2826;51.354;9.588;2023-05-21T08:40:57;98157.78;;;22.55;58.25
5609;BME280;2826;51.354;9.588;2023-05-21T08:43:27;98159.31;;;22.58;57.52
5609;BME280;2826;51.354;9.588;2023-05-21T08:45:54;98152.88;;;22.51;57.03
5609;BME280;2826;51.354;9.588;2023-05-21T08:48:27;98159.47;;;22.66;57.70
5609;BME280;2826;51.354;9.588;2023-05-21T08:50:54;98163.06;;;22.65;56.79
5609;BME280;2826;51.354;9.588;2023-05-21T08:53:26;98164.72;;;22.76;56.86
5609;BME280;2826;51.354;9.588;2023-05-21T08:55:54;98159.44;;;22.96;57.47
5609;BME280;2826;51.354;9.588;2023-05-21T08:58:23;98159.94;;;23.19;55.35
5609;BME280;2826;51.354;9.588;2023-05-21T09:00:53;98152.69;;;23.41;56.22
5609;BME280;2826;51.354;9.588;2023-05-21T09:03:21;98164.19;;;23.60;55.36
5609;BME280;2826;51.354;9.588;2023-05-21T09:05:50;98076.28;;;23.18;54.98
5609;BME280;2826;51.354;9.588;2023-05-21T09:08:18;98126.09;;;23.43;54.53
5609;BME280;2826;51.354;9.588;2023-05-21T09:11:06;98152.66;;;23.61;54.21
5609;BME280;2826;51.354;9.588;2023-05-21T09:13:39;98156.41;;;23.58;54.61
5609;BME280;2826;51.354;9.588;2023-05-21T09:16:13;98155.31;;;23.51;54.40
5609;BME280;2826;51.354;9.588;2023-05-21T09:18:41;98148.50;;;23.48;54.14
5609;BME280;2826;51.354;9.588;2023-05-21T09:21:23;98148.75;;;23.55;54.79
5609;BME280;2826;51.354;9.588;2023-05-21T09:23:55;98154.34;;;23.52;54.88
5609;BME280;2826;51.354;9.588;2023-05-21T09:26:22;98158.94;;;23.50;54.36
5609;BME280;2826;51.354;9.588;2023-05-21T09:28:56;98152.66;;;23.51;54.61
5609;BME280;2826;51.354;9.588;2023-05-21T09:31:24;98156.59;;;23.47;54.57
5609;BME280;2826;51.354;9.588;2023-05-21T09:33:51;98154.94;;;23.36;55.07
5609;BME280;2826;51.354;9.588;2023-05-21T09:36:20;98158.09;;;23.49;55.03
5609;BME280;2826;51.354;9.588;2023-05-21T09:38:47;98164.50;;;23.57;55.59
5609;BME280;2826;51.354;9.588;2023-05-21T09:41:15;98160.00;;;23.67;55.08
5609;BME280;2826;51.354;9.588;2023-05-21T09:43:42;98167.88;;;23.49;55.92
5609;BME280;2826;51.354;9.588;2023-05-21T09:46:11;98162.38;;;23.60;55.80
5609;BME280;2826;51.354;9.588;2023-05-21T09:48:40;98159.59;;;23.62;55.88
5609;BME280;2826;51.354;9.588;2023-05-21T09:51:14;98160.69;;;23.69;55.92
5609;BME280;2826;51.354;9.588;2023-05-21T09:53:48;98166.81;;;23.70;55.60
5609;BME280;2826;51.354;9.588;2023-05-21T09:56:17;98165.78;;;23.81;55.70
5609;BME280;2826;51.354;9.588;2023-05-21T09:58:44;98155.84;;;23.93;55.73
5609;BME280;2826;51.354;9.588;2023-05-21T10:01:11;98154.53;;;24.07;55.64
5609;BME280;2826;51.354;9.588;2023-05-21T10:03:41;98153.94;;;24.13;54.93
5609;BME280;2826;51.354;9.588;2023-05-21T10:06:12;98152.91;;;24.24;54.88
5609;BME280;2826;51.354;9.588;2023-05-21T10:08:42;98150.34;;;24.32;54.74
5609;BME280;2826;51.354;9.588;2023-05-21T10:11:10;98135.72;;;24.28;54.16
5609;BME280;2826;51.354;9.588;2023-05-21T10:13:40;98149.75;;;24.57;54.47
5609;BME280;2826;51.354;9.588;2023-05-21T10:16:09;98154.16;;;24.66;54.13
5609;BME280;2826;51.354;9.588;2023-05-21T10:18:38;98145.75;;;24.89;54.02
5609;BME280;2826;51.354;9.588;2023-05-21T10:21:06;98154.50;;;25.08;53.44
5609;BME280;2826;51.354;9.588;2023-05-21T10:23:35;98149.59;;;25.13;52.78
5609;BME280;2826;51.354;9.588;2023-05-21T10:26:02;98139.19;;;25.20;52.19
5609;BME280;2826;51.354;9.588;2023-05-21T10:28:31;98138.09;;;25.30;52.66
5609;BME280;2826;51.354;9.588;2023-05-21T10:30:59;98141.56;;;25.31;53.04
5609;BME280;2826;51.354;9.588;2023-05-21T10:33:26;98137.94;;;25.32;52.80
5609;BME280;2826;51.354;9.588;2023-05-21T10:35:56;98138.47;;;25.36;52.79
5609;BME280;2826;51.354;9.588;2023-05-21T10:38:26;98133.47;;;25.33;52.97
5609;BME280;2826;51.354;9.588;2023-05-21T10:40:53;98128.88;;;25.43;53.11
5609;BME280;2826;51.354;9.588;2023-05-21T10:43:33;98133.63;;;25.57;52.75
5609;BME280;2826;51.354;9.588;2023-05-21T10:46:23;98137.34;;;25.73;52.40
5609;BME280;2826;51.354;9.588;2023-05-21T10:49:02;98129.53;;;25.72;50.43
5609;BME280;2826;51.354;9.588;2023-05-21T10:51:38;98123.78;;;25.85;51.03
5609;BME280;2826;51.354;9.588;2023-05-21T10:54:37;98133.81;;;26.07;51.57
5609;BME280;2826;51.354;9.588;2023-05-21T10:57:14;98125.38;;;26.20;51.97
5609;BME280;2826;51.354;9.588;2023-05-21T10:59:43;98124.78;;;26.27;52.16
5609;BME280;2826;51.354;9.588;2023-05-21T11:02:13;98128.25;;;26.35;51.43
5609;BME280;2826;51.354;9.588;2023-05-21T11:04:40;98123.13;;;26.51;50.51
5609;BME280;2826;51.354;9.588;2023-05-21T11:07:10;98123.78;;;26.53;50.40
5609;BME280;2826;51.354;9.588;2023-05-21T11:09:39;98127.97;;;26.80;49.78
5609;BME280;2826;51.354;9.588;2023-05-21T11:12:05;98127.16;;;26.96;48.71
5609;BME280;2826;51.354;9.588;2023-05-21T11:14:35;98121.13;;;27.11;48.72
5609;BME280;2826;51.354;9.588;2023-05-21T11:17:09;98119.31;;;27.11;47.97
5609;BME280;2826;51.354;9.588;2023-05-21T11:19:37;98080.91;;;26.97;48.49
5609;BME280;2826;51.354;9.588;2023-05-21T11:22:06;98114.44;;;27.40;48.13
5609;BME280;2826;51.354;9.588;2023-05-21T11:24:36;98115.53;;;27.62;47.85
5609;BME280;2826;51.354;9.588;2023-05-21T11:27:04;98106.81;;;27.85;47.07
5609;BME280;2826;51.354;9.588;2023-05-21T11:29:43;98104.75;;;27.96;47.18
5609;BME280;2826;51.354;9.588;2023-05-21T11:32:11;98103.75;;;27.97;46.67
5609;BME280;2826;51.354;9.588;2023-05-21T11:34:39;98099.00;;;27.84;47.48
5609;BME280;2826;51.354;9.588;2023-05-21T11:37:29;98095.53;;;27.75;48.34
5609;BME280;2826;51.354;9.588;2023-05-21T11:40:15;98103.75;;;27.97;47.20
5609;BME280;2826;51.354;9.588;2023-05-21T11:42:48;98103.84;;;28.12;46.89
5609;BME280;2826;51.354;9.588;2023-05-21T11:45:16;98098.66;;;28.10;46.14
5609;BME280;2826;51.354;9.588;2023-05-21T11:47:43;98096.75;;;28.27;46.64
5609;BME280;2826;51.354;9.588;2023-05-21T11:50:11;98099.06;;;28.54;46.08
5609;BME280;2826;51.354;9.588;2023-05-21T11:52:39;98101.47;;;28.49;45.60
5609;BME280;2826;51.354;9.588;2023-05-21T11:55:06;98096.22;;;28.32;46.00
5609;BME280;2826;51.354;9.588;2023-05-21T11:57:33;98092.31;;;28.11;45.75
5609;BME280;2826;51.354;9.588;2023-05-21T12:00:02;98069.69;;;28.07;45.40
5609;BME280;2826;51.354;9.588;2023-05-21T12:02:39;98096.13;;;28.25;44.88
5609;BME280;2826;51.354;9.588;2023-05-21T12:05:09;98096.53;;;28.37;43.83
5609;BME280;2826;51.354;9.588;2023-05-21T12:07:35;98096.41;;;28.54;43.53
5609;BME280;2826;51.354;9.588;2023-05-21T12:10:03;98090.22;;;28.53;43.21
5609;BME280;2826;51.354;9.588;2023-05-21T12:12:31;98086.16;;;28.42;42.92
5609;BME280;2826;51.354;9.588;2023-05-21T12:14:58;98086.16;;;28.42;42.80
5609;BME280;2826;51.354;9.588;2023-05-21T12:17:27;98091.47;;;28.42;44.21
5609;BME280;2826;51.354;9.588;2023-05-21T12:19:56;98095.09;;;28.50;43.41
5609;BME280;2826;51.354;9.588;2023-05-21T12:22:23;98091.06;;;28.77;43.73
5609;BME280;2826;51.354;9.588;2023-05-21T12:24:52;98091.31;;;29.06;42.60
5609;BME280;2826;51.354;9.588;2023-05-21T12:27:20;98096.28;;;29.39;41.33
5609;BME280;2826;51.354;9.588;2023-05-21T12:29:49;98100.28;;;29.73;40.58
5609;BME280;2826;51.354;9.588;2023-05-21T12:32:17;98088.09;;;30.08;40.31
5609;BME280;2826;51.354;9.588;2023-05-21T12:34:46;98093.19;;;30.40;39.39
5609;BME280;2826;51.354;9.588;2023-05-21T12:37:14;98076.47;;;30.37;38.42
5609;BME280;2826;51.354;9.588;2023-05-21T12:39:42;98089.97;;;30.51;38.99
5609;BME280;2826;51.354;9.588;2023-05-21T12:42:09;98088.56;;;30.55;38.20
5609;BME280;2826;51.354;9.588;2023-05-21T12:44:37;98080.53;;;30.55;38.22
5609;BME280;2826;51.354;9.588;2023-05-21T12:47:05;98085.53;;;30.58;38.26
5609;BME280;2826;51.354;9.588;2023-05-21T12:49:32;98079.84;;;30.68;38.61
5609;BME280;2826;51.354;9.588;2023-05-21T12:52:07;98078.16;;;30.89;38.66
5609;BME280;2826;51.354;9.588;2023-05-21T12:54:35;98071.59;;;30.92;38.15
5609;BME280;2826;51.354;9.588;2023-05-21T12:57:06;98074.06;;;30.93;37.83
5609;BME280;2826;51.354;9.588;2023-05-21T12:59:53;98076.47;;;30.81;37.93
5609;BME280;2826;51.354;9.588;2023-05-21T13:02:23;98063.13;;;30.66;38.62
5609;BME280;2826;51.354;9.588;2023-05-21T13:04:54;98060.47;;;30.66;38.28
5609;BME280;2826;51.354;9.588;2023-05-21T13:07:23;98063.78;;;30.90;38.22
5609;BME280;2826;51.354;9.588;2023-05-21T13:09:50;98050.63;;;30.95;38.17
5609;BME280;2826;51.354;9.588;2023-05-21T13:12:18;98055.34;;;30.93;37.82
5609;BME280;2826;51.354;9.588;2023-05-21T13:14:46;98060.34;;;31.03;37.55
5609;BME280;2826;51.354;9.588;2023-05-21T13:17:13;98060.50;;;30.95;37.76
5609;BME280;2826;51.354;9.588;2023-05-21T13:19:40;98057.41;;;30.91;36.95
5609;BME280;2826;51.354;9.588;2023-05-21T13:22:07;98055.34;;;30.93;37.69
5609;BME280;2826;51.354;9.588;2023-05-21T13:24:36;98055.31;;;31.22;37.75
5609;BME280;2826;51.354;9.588;2023-05-21T13:27:04;98047.44;;;31.55;36.79
5609;BME280;2826;51.354;9.588;2023-05-21T13:29:31;98046.50;;;31.77;34.96
5609;BME280;2826;51.354;9.588;2023-05-21T13:31:58;98045.38;;;32.06;34.69